Time;durP1;ratioP1;P1;durP2;ratioP2;P2;SDS_P1;SDS_P2;PMS_P1;PMS_P2;Temp;Humidity;BMP_temperature;BMP_pressure;BME280_temperature;BME280_humidity;BME280_pressure;Samples;Min_cycle;Max_cycle;Signal;HPM_P1;HPM_P2
2022/01/15 00:03:57;;;;;;;64.53;33.25;;;;;;;4.10;100.00;103344.47;10118492;29;20037;-75
2022/01/15 00:08:58;;;;;;;60.28;39.50;;;;;;;3.97;100.00;103344.38;10102581;29;20057;-75
2022/01/15 00:14:23;;;;;;;58.75;35.47;;;;;;;3.92;100.00;103340.25;10102456;29;20067;-75
2022/01/15 00:19:36;;;;;;;70.05;40.28;;;;;;;3.94;100.00;103339.22;10103134;29;20037;-75
2022/01/15 00:24:36;;;;;;;84.80;43.20;;;;;;;4.07;100.00;103328.59;10101208;29;20037;-75
2022/01/15 00:29:37;;;;;;;72.80;37.63;;;;;;;4.05;100.00;103309.06;10116401;29;20510;-75
2022/01/15 00:34:37;;;;;;;71.82;40.88;;;;;;;4.04;100.00;103307.31;10115500;29;20121;-75
2022/01/15 00:39:38;;;;;;;60.67;34.55;;;;;;;3.99;100.00;103308.56;10100497;29;20041;-75
2022/01/15 00:44:40;;;;;;;67.28;34.95;;;;;;;3.92;100.00;103306.28;10100956;29;20033;-75
2022/01/15 00:49:41;;;;;;;67.90;35.17;;;;;;;3.92;100.00;103292.88;10101453;29;20497;-75
2022/01/15 00:54:41;;;;;;;71.22;35.95;;;;;;;3.90;100.00;103288.56;10100778;29;20048;-75
2022/01/15 00:59:42;;;;;;;70.90;37.72;;;;;;;3.81;100.00;103281.94;10102047;29;20127;-75
2022/01/15 01:04:42;;;;;;;67.22;37.83;;;;;;;3.75;100.00;103278.78;10099628;29;20390;-74
2022/01/15 01:10:07;;;;;;;82.93;38.67;;;;;;;3.65;100.00;103279.34;10099454;29;20057;-75
2022/01/15 01:25:37;;;;;;;89.57;39.13;;;;;;;3.73;100.00;103260.09;10099552;29;20037;-75
2022/01/15 01:31:00;;;;;;;107.38;41.47;;;;;;;3.72;100.00;103261.94;10098136;29;20446;-76
2022/01/15 01:41:06;;;;;;;62.35;32.05;;;;;;;3.68;100.00;103263.09;10099388;29;20438;-74
2022/01/15 01:46:16;;;;;;;66.75;36.40;;;;;;;3.68;100.00;103260.41;10113525;29;20033;-75
2022/01/15 01:51:31;;;;;;;53.88;32.10;;;;;;;3.50;100.00;103258.84;10098425;29;20044;-75
2022/01/15 01:56:31;;;;;;;59.03;31.33;;;;;;;3.37;100.00;103239.97;10098194;29;20040;-75
2022/01/15 02:01:32;;;;;;;65.55;36.15;;;;;;;3.26;100.00;103240.63;10098166;29;20442;-74
2022/01/15 02:06:32;;;;;;;49.28;28.75;;;;;;;3.25;100.00;103235.34;10098060;29;20041;-74
2022/01/15 02:11:33;;;;;;;46.15;26.65;;;;;;;3.09;100.00;103216.69;10083844;29;20458;-75
2022/01/15 02:16:33;;;;;;;62.90;36.58;;;;;;;3.15;100.00;103219.00;10098537;29;20131;-75
2022/01/15 02:26:49;;;;;;;61.05;32.40;;;;;;;3.06;100.00;103208.81;10110876;29;20060;-74
2022/01/15 02:31:49;;;;;;;78.68;31.85;;;;;;;3.16;100.00;103204.66;10098115;29;20068;-74
2022/01/15 02:36:50;;;;;;;52.78;31.00;;;;;;;3.09;100.00;103197.09;10096689;29;20049;-74
2022/01/15 02:41:50;;;;;;;65.90;35.50;;;;;;;3.21;100.00;103191.00;10098561;29;20052;-74
2022/01/15 02:51:51;;;;;;;45.78;25.75;;;;;;;3.16;100.00;103174.34;10097786;29;20397;-74
2022/01/15 02:56:52;;;;;;;56.97;31.08;;;;;;;3.01;100.00;103171.66;10098250;29;20068;-74
2022/01/15 03:01:52;;;;;;;83.22;34.47;;;;;;;3.12;100.00;103170.13;10095772;29;20033;-75
2022/01/15 03:06:52;;;;;;;60.33;29.60;;;;;;;3.11;100.00;103163.06;10111271;29;20554;-74
2022/01/15 03:11:59;;;;;;;53.00;29.17;;;;;;;3.06;100.00;103160.66;10111277;29;20429;-74
2022/01/15 03:16:59;;;;;;;44.72;21.88;;;;;;;2.97;100.00;103153.19;10097878;29;20033;-74
2022/01/15 03:22:00;;;;;;;61.85;24.85;;;;;;;2.83;100.00;103140.63;10097290;29;20512;-74
2022/01/15 03:27:00;;;;;;;65.20;31.38;;;;;;;2.85;100.00;103135.19;10098422;29;20045;-74
2022/01/15 03:32:00;;;;;;;67.18;32.40;;;;;;;2.92;100.00;103134.72;10099325;29;20083;-76
2022/01/15 03:37:01;;;;;;;68.72;30.08;;;;;;;2.82;100.00;103135.38;10117209;29;20124;-75
2022/01/15 03:42:02;;;;;;;60.47;29.05;;;;;;;2.74;100.00;103135.81;10104282;29;20047;-74
2022/01/15 03:47:03;;;;;;;47.42;21.35;;;;;;;2.75;100.00;103141.09;10102435;29;20044;-74
2022/01/15 03:52:04;;;;;;;58.00;32.28;;;;;;;2.71;100.00;103144.91;10117692;29;20389;-74
2022/01/15 03:57:05;;;;;;;30.60;16.10;;;;;;;2.60;100.00;103139.31;10102536;29;20529;-74
2022/01/15 04:02:05;;;;;;;78.88;27.70;;;;;;;2.65;100.00;103125.66;10116400;29;20120;-74
2022/01/15 04:07:06;;;;;;;39.83;22.00;;;;;;;2.53;100.00;103120.09;10102706;29;20037;-74
2022/01/15 04:12:06;;;;;;;54.53;24.90;;;;;;;2.51;100.00;103105.94;10103776;29;20488;-74
2022/01/15 04:17:07;;;;;;;61.78;26.70;;;;;;;2.58;100.00;103097.56;10100695;29;20449;-74
2022/01/15 04:22:08;;;;;;;69.35;29.98;;;;;;;2.68;100.00;103102.28;10117228;29;20036;-74
2022/01/15 04:27:08;;;;;;;48.72;26.63;;;;;;;2.80;100.00;103095.31;10102120;29;20041;-74
2022/01/15 04:32:08;;;;;;;50.67;24.83;;;;;;;2.84;100.00;103086.19;10100802;29;20116;-75
2022/01/15 04:37:16;;;;;;;59.92;26.73;;;;;;;2.77;100.00;103101.72;10103810;29;20047;-74
2022/01/15 04:42:20;;;;;;;46.60;22.17;;;;;;;2.65;100.00;103088.22;10102237;29;20040;-74
2022/01/15 04:47:21;;;;;;;59.95;24.55;;;;;;;2.72;100.00;103089.59;10099754;29;20232;-74
2022/01/15 04:52:22;;;;;;;77.40;26.88;;;;;;;2.67;100.00;103078.28;10100652;29;20078;-74
2022/01/15 04:57:22;;;;;;;50.53;21.67;;;;;;;2.62;100.00;103067.03;10099278;29;20120;-74
2022/01/15 05:02:23;;;;;;;47.83;25.13;;;;;;;2.46;100.00;103056.38;10099756;29;20132;-74
2022/01/15 05:07:24;;;;;;;43.85;24.50;;;;;;;2.43;100.00;103048.56;10114469;29;20457;-74
2022/01/15 05:17:25;;;;;;;47.22;20.73;;;;;;;2.28;100.00;103037.78;10114082;29;20545;-74
2022/01/15 05:22:25;;;;;;;43.33;22.92;;;;;;;2.22;100.00;103029.28;10098982;29;20041;-74
2022/01/15 05:27:25;;;;;;;28.05;17.70;;;;;;;2.10;100.00;103022.84;10098809;29;20405;-74
2022/01/15 05:32:26;;;;;;;69.90;24.67;;;;;;;2.01;100.00;103008.22;10100336;29;20044;-74
2022/01/15 05:37:26;;;;;;;63.92;24.30;;;;;;;2.07;100.00;103004.31;10098901;29;20041;-74
2022/01/15 05:42:27;;;;;;;64.72;22.52;;;;;;;2.12;100.00;103009.41;10099455;29;20051;-74
2022/01/15 05:47:27;;;;;;;68.25;29.92;;;;;;;2.02;100.00;103001.91;10103136;29;20041;-74
2022/01/15 05:52:28;;;;;;;60.67;25.08;;;;;;;2.18;100.00;103003.69;10101151;29;20044;-74
2022/01/15 05:57:28;;;;;;;44.92;27.23;;;;;;;2.23;100.00;102993.56;10097362;29;20041;-74
2022/01/15 06:02:28;;;;;;;61.05;26.58;;;;;;;2.17;100.00;102994.81;10097723;29;20045;-74
2022/01/15 06:07:29;;;;;;;115.03;32.67;;;;;;;2.13;100.00;102985.25;10112289;29;20037;-74
2022/01/15 06:12:32;;;;;;;44.70;21.85;;;;;;;2.26;100.00;102985.38;10099083;29;20454;-74
2022/01/15 06:17:32;;;;;;;67.35;27.85;;;;;;;2.16;100.00;102984.19;10097854;29;20029;-76
2022/01/15 06:22:32;;;;;;;30.60;19.83;;;;;;;2.09;100.00;102987.25;10097212;29;20093;-74
2022/01/15 06:27:33;;;;;;;34.55;19.90;;;;;;;2.04;100.00;102989.34;10112035;29;20068;-74
2022/01/15 06:32:36;;;;;;;77.78;28.33;;;;;;;2.02;100.00;102977.00;10095766;29;20044;-74
2022/01/15 06:37:36;;;;;;;42.35;19.85;;;;;;;2.12;100.00;102988.03;10096146;29;20037;-74
2022/01/15 06:42:37;;;;;;;55.60;26.30;;;;;;;2.16;100.00;102990.41;10111640;29;20044;-74
2022/01/15 06:47:37;;;;;;;34.65;18.50;;;;;;;2.15;100.00;102991.38;10111488;29;20405;-74
2022/01/15 06:52:38;;;;;;;38.42;15.32;;;;;;;2.10;100.00;102977.41;10097305;29;20069;-74
2022/01/15 06:57:38;;;;;;;81.28;25.65;;;;;;;2.12;100.00;102980.00;10095832;29;20029;-74
2022/01/15 07:02:39;;;;;;;72.72;26.23;;;;;;;2.13;100.00;102979.91;10099200;29;20052;-75
2022/01/15 07:07:44;;;;;;;57.33;24.63;;;;;;;2.14;100.00;102970.06;10100057;29;20101;-74
2022/01/15 07:12:45;;;;;;;47.72;21.35;;;;;;;2.13;100.00;102979.91;10104374;29;20462;-75
2022/01/15 07:17:46;;;;;;;65.43;22.95;;;;;;;2.15;100.00;102967.31;10104060;29;20085;-74
2022/01/15 07:22:46;;;;;;;49.10;17.77;;;;;;;2.13;100.00;102971.03;10102117;29;20033;-74
2022/01/15 07:27:46;;;;;;;59.20;24.40;;;;;;;2.19;100.00;102976.00;10104764;29;20061;-74
2022/01/15 07:32:47;;;;;;;47.33;19.50;;;;;;;2.22;100.00;102971.34;10086717;29;20044;-74
2022/01/15 07:37:48;;;;;;;54.47;22.95;;;;;;;2.22;100.00;102962.47;10103308;29;20468;-75
2022/01/15 07:42:48;;;;;;;74.13;27.42;;;;;;;2.27;100.00;102957.72;10103829;29;20037;-74
2022/01/15 07:47:48;;;;;;;41.15;24.27;;;;;;;2.27;100.00;102955.03;10116825;29;20069;-74
2022/01/15 07:52:50;;;;;;;65.15;25.48;;;;;;;2.33;100.00;102960.88;10086028;29;20041;-74
2022/01/15 07:57:51;;;;;;;48.00;23.48;;;;;;;2.41;100.00;102946.16;10118059;29;20041;-74
2022/01/15 08:02:51;;;;;;;47.20;23.17;;;;;;;2.46;100.00;102939.59;10101618;29;20104;-74
2022/01/15 08:07:52;;;;;;;70.10;25.90;;;;;;;2.39;100.00;102946.25;10118146;29;20084;-74
2022/01/15 08:12:52;;;;;;;54.78;27.67;;;;;;;2.39;100.00;102932.88;10105869;29;20072;-74
2022/01/15 08:17:53;;;;;;;45.55;27.98;;;;;;;2.35;100.00;102933.16;10103439;29;20418;-74
2022/01/15 08:22:53;;;;;;;46.05;24.85;;;;;;;2.36;100.00;102921.50;10101878;29;20489;-74
2022/01/15 08:27:53;;;;;;;49.20;27.27;;;;;;;2.37;100.00;102939.28;10101398;29;20048;-74
2022/01/15 08:32:54;;;;;;;65.50;30.75;;;;;;;2.42;100.00;102930.00;10100998;29;20173;-73
2022/01/15 08:37:55;;;;;;;91.72;34.85;;;;;;;2.51;100.00;102926.78;10099800;29;20048;-74
2022/01/15 08:42:55;;;;;;;58.67;25.90;;;;;;;2.48;100.00;102926.97;10099265;29;20037;-74
2022/01/15 08:47:56;;;;;;;51.90;25.45;;;;;;;2.52;100.00;102925.84;10100535;29;20386;-73
2022/01/15 08:52:57;;;;;;;64.82;30.50;;;;;;;2.46;100.00;102928.88;10101554;29;20033;-74
2022/01/15 08:57:57;;;;;;;65.68;27.88;;;;;;;2.55;100.00;102927.44;10115709;29;20045;-72
2022/01/15 09:02:58;;;;;;;63.13;34.33;;;;;;;2.53;100.00;102924.88;10098505;29;20516;-74
2022/01/15 09:07:58;;;;;;;55.22;31.42;;;;;;;2.53;100.00;102930.22;10099395;29;20037;-73
2022/01/15 09:12:59;;;;;;;58.58;30.55;;;;;;;2.60;100.00;102924.50;10100464;29;20088;-74
2022/01/15 09:17:59;;;;;;;59.17;33.35;;;;;;;2.53;100.00;102924.00;10099261;29;20073;-74
2022/01/15 09:23:00;;;;;;;67.90;32.47;;;;;;;2.55;100.00;102922.09;10099798;29;20037;-73
2022/01/15 09:33:19;;;;;;;74.65;34.65;;;;;;;2.58;100.00;102923.72;10097854;29;20041;-74
2022/01/15 09:38:20;;;;;;;63.08;33.85;;;;;;;2.55;100.00;102924.75;10114331;29;20041;-74
2022/01/15 09:43:20;;;;;;;52.78;29.05;;;;;;;2.70;100.00;102918.47;10099754;29;20060;-73
2022/01/15 09:48:21;;;;;;;58.70;29.23;;;;;;;2.72;100.00;102927.25;10096990;29;20386;-74
2022/01/15 09:53:21;;;;;;;54.85;31.92;;;;;;;2.72;100.00;102934.44;10096606;29;20064;-77
2022/01/15 09:58:21;;;;;;;51.20;29.35;;;;;;;2.74;100.00;102927.16;10098007;29;20097;-74
2022/01/15 10:03:22;;;;;;;54.78;33.13;;;;;;;2.85;100.00;102924.66;10097954;29;20040;-74
2022/01/15 10:08:22;;;;;;;52.45;29.15;;;;;;;2.80;100.00;102921.41;10099018;29;20061;-73
2022/01/15 10:13:24;;;;;;;57.22;28.02;;;;;;;2.76;100.00;102910.03;10098632;29;20135;-74
2022/01/15 10:18:29;;;;;;;67.05;34.20;;;;;;;2.80;100.00;102922.25;10097149;29;20029;-75
2022/01/15 10:23:29;;;;;;;69.32;33.20;;;;;;;2.93;100.00;102908.09;10082639;29;20037;-75
2022/01/15 10:28:52;;;;;;;53.65;31.30;;;;;;;2.87;100.00;102912.06;10096379;29;20033;-73
2022/01/15 10:33:53;;;;;;;64.18;32.45;;;;;;;2.96;100.00;102910.59;10097355;29;20410;-73
2022/01/15 10:38:53;;;;;;;61.63;29.13;;;;;;;2.91;100.00;102907.38;10097784;29;20041;-73
2022/01/15 10:43:54;;;;;;;53.67;29.08;;;;;;;2.85;100.00;102903.25;10100547;29;20036;-73
2022/01/15 10:48:54;;;;;;;56.17;31.13;;;;;;;2.91;100.00;102896.66;10105132;29;20097;-74
2022/01/15 10:54:01;;;;;;;47.58;29.02;;;;;;;2.87;100.00;102901.34;10104698;29;20064;-74
2022/01/15 10:59:08;;;;;;;42.10;23.00;;;;;;;3.05;100.00;102895.75;10105234;29;20051;-73
2022/01/15 11:04:11;;;;;;;43.10;26.30;;;;;;;3.10;100.00;102899.00;10120200;29;20045;-73
2022/01/15 11:09:11;;;;;;;38.28;24.90;;;;;;;3.07;100.00;102896.53;10103061;29;20077;-73
2022/01/15 11:14:12;;;;;;;38.17;22.73;;;;;;;3.12;100.00;102892.56;10105131;29;20358;-74
2022/01/15 11:19:12;;;;;;;37.17;22.80;;;;;;;3.05;100.00;102890.41;10103848;29;20462;-74
2022/01/15 11:24:13;;;;;;;32.40;22.17;;;;;;;2.72;100.00;102889.81;10086927;29;20048;-74
2022/01/15 11:29:13;;;;;;;33.55;20.92;;;;;;;2.76;100.00;102872.59;10102466;29;20044;-75
2022/01/15 11:34:14;;;;;;;35.95;20.25;;;;;;;2.81;100.00;102861.63;10103324;29;20039;-74
2022/01/15 11:39:18;;;;;;;41.85;22.80;;;;;;;2.80;100.00;102851.84;10102699;29;20033;-74
2022/01/15 11:44:28;;;;;;;36.42;22.42;;;;;;;2.80;100.00;102849.16;10118225;29;20041;-74
2022/01/15 11:49:41;;;;;;;35.80;22.40;;;;;;;2.71;100.00;102842.63;10103182;29;20677;-74
2022/01/15 11:55:05;;;;;;;44.40;24.75;;;;;;;2.87;100.00;102836.25;10102473;29;20063;-73
2022/01/15 12:00:06;;;;;;;34.47;19.88;;;;;;;2.83;100.00;102819.53;10103525;29;20029;-74
2022/01/15 12:05:19;;;;;;;28.08;20.00;;;;;;;2.92;100.00;102818.09;10100907;29;20049;-74
2022/01/15 12:10:19;;;;;;;43.08;22.70;;;;;;;2.86;100.00;102824.69;10101625;29;20053;-75
2022/01/15 12:15:27;;;;;;;39.97;24.70;;;;;;;2.99;100.00;102812.22;10102806;29;20446;-76
2022/01/15 12:20:32;;;;;;;40.88;23.75;;;;;;;2.99;100.00;102808.69;10116952;29;20045;-75
2022/01/15 12:25:35;;;;;;;40.88;27.08;;;;;;;2.83;100.00;102792.78;10100168;29;20037;-74
2022/01/15 12:30:37;;;;;;;38.28;24.73;;;;;;;2.88;100.00;102782.66;10102516;29;20029;-73
2022/01/15 12:35:38;;;;;;;37.70;23.30;;;;;;;2.96;100.00;102782.97;10115442;29;20037;-73
2022/01/15 12:40:41;;;;;;;44.05;29.05;;;;;;;2.79;100.00;102780.56;10115646;29;20029;-74
2022/01/15 12:45:42;;;;;;;49.78;29.58;;;;;;;2.78;100.00;102762.81;10101360;29;20053;-73
2022/01/15 12:50:46;;;;;;;54.58;28.77;;;;;;;2.68;100.00;102777.72;10100462;29;20464;-74
2022/01/15 12:55:47;;;;;;;44.42;28.30;;;;;;;2.63;100.00;102774.50;10100326;29;20066;-74
2022/01/15 13:00:47;;;;;;;64.63;36.85;;;;;;;2.85;100.00;102772.16;10099559;29;20474;-75
2022/01/15 13:05:52;;;;;;;57.97;33.55;;;;;;;2.76;100.00;102762.91;10097815;29;20033;-75
2022/01/15 13:16:01;;;;;;;52.83;31.75;;;;;;;2.92;100.00;102756.53;10098512;29;20030;-75
2022/01/15 13:21:03;;;;;;;49.90;30.35;;;;;;;2.91;100.00;102755.69;10099827;29;20129;-77
2022/01/15 13:26:04;;;;;;;55.92;36.40;;;;;;;3.03;100.00;102745.97;10098648;29;20504;-77
2022/01/15 13:31:10;;;;;;;73.32;41.25;;;;;;;3.02;100.00;102747.78;10618958;27;1253510;-77
2022/01/15 13:36:15;;;;;;;61.63;37.50;;;;;;;3.17;100.00;102745.06;10615413;28;20478;-78
2022/01/15 13:41:17;;;;;;;70.43;35.17;;;;;;;3.24;100.00;102741.00;10617027;27;20035;-80
2022/01/15 13:46:19;;;;;;;54.33;33.83;;;;;;;3.09;100.00;102732.16;10616927;27;20114;-77
2022/01/15 13:56:44;;;;;;;70.32;36.65;;;;;;;3.17;100.00;102720.97;10603091;28;20035;-78
2022/01/15 14:01:49;;;;;;;64.45;39.88;;;;;;;3.16;100.00;102711.19;10616120;27;20039;-76
2022/01/15 14:06:50;;;;;;;60.25;38.47;;;;;;;3.14;100.00;102700.59;10615263;27;20042;-77
2022/01/15 14:12:10;;;;;;;71.03;39.75;;;;;;;3.07;100.00;102687.75;10614340;28;20027;-78
2022/01/15 14:17:10;;;;;;;60.08;37.95;;;;;;;3.11;100.00;102682.06;10615769;27;20035;-78
2022/01/15 14:22:18;;;;;;;54.42;30.17;;;;;;;3.13;100.00;102669.47;10588701;28;20032;-78
2022/01/15 14:27:23;;;;;;;71.25;42.13;;;;;;;3.02;100.00;102674.69;10571265;28;20051;-78
2022/01/15 14:32:24;;;;;;;65.97;39.63;;;;;;;3.05;100.00;102671.78;10572425;28;20089;-79
2022/01/15 14:37:25;;;;;;;81.90;45.22;;;;;;;2.93;100.00;102670.78;10571727;28;20386;-79
2022/01/15 14:42:26;;;;;;;75.20;44.25;;;;;;;2.95;100.00;102662.69;10545003;28;20092;-79
2022/01/15 14:47:26;;;;;;;79.47;40.97;;;;;;;2.94;100.00;102664.50;10545222;28;20032;-77
2022/01/15 14:52:26;;;;;;;61.78;39.55;;;;;;;2.94;100.00;102658.31;10544389;28;20036;-79
2022/01/15 14:57:27;;;;;;;76.13;43.80;;;;;;;2.77;100.00;102656.75;10542420;28;20111;-78
2022/01/15 15:02:27;;;;;;;88.28;48.80;;;;;;;2.94;100.00;102656.47;10542100;28;20035;-76
2022/01/15 15:07:28;;;;;;;68.78;39.42;;;;;;;2.81;100.00;102639.56;10543059;28;20471;-76
2022/01/15 15:12:36;;;;;;;71.70;43.85;;;;;;;2.69;100.00;102633.19;10542659;28;20036;-79
2022/01/15 15:17:38;;;;;;;69.07;37.67;;;;;;;2.53;100.00;102630.69;10526772;28;20077;-76
2022/01/15 15:22:39;;;;;;;69.18;40.08;;;;;;;2.48;100.00;102616.75;10551603;28;20040;-80
2022/01/15 15:27:43;;;;;;;84.55;43.35;;;;;;;2.44;100.00;102604.56;10585460;28;20450;-78
2022/01/15 15:32:43;;;;;;;69.18;43.17;;;;;;;2.37;100.00;102602.41;10586302;28;20040;-77
2022/01/15 15:37:44;;;;;;;74.95;38.40;;;;;;;2.14;100.00;102595.91;10533070;28;20052;-77
2022/01/15 15:42:44;;;;;;;68.30;40.05;;;;;;;2.16;100.00;102591.31;10499578;28;20051;-77
2022/01/15 15:47:45;;;;;;;71.63;34.60;;;;;;;1.97;100.00;102576.50;10515645;28;20059;-77
2022/01/15 15:52:45;;;;;;;59.72;33.15;;;;;;;1.94;100.00;102576.69;10499624;28;20502;-76
2022/01/15 15:57:45;;;;;;;60.17;35.20;;;;;;;1.86;100.00;102560.31;10515907;28;20059;-77
2022/01/15 16:02:47;;;;;;;72.47;39.38;;;;;;;1.78;100.00;102562.63;10498531;28;20051;-77
2022/01/15 16:07:48;;;;;;;73.57;40.53;;;;;;;1.75;100.00;102566.34;10499405;28;20456;-77
2022/01/15 16:12:51;;;;;;;78.53;41.05;;;;;;;1.75;100.00;102561.00;10481744;28;20040;-76
2022/01/15 16:17:52;;;;;;;72.60;39.92;;;;;;;1.65;100.00;102567.03;10497935;28;20387;-77
2022/01/15 16:22:52;;;;;;;74.78;39.10;;;;;;;1.63;100.00;102573.34;10465456;28;20094;-77
2022/01/15 16:27:53;;;;;;;72.57;38.13;;;;;;;1.61;100.00;102567.25;10497505;28;20545;-77
2022/01/15 16:32:53;;;;;;;76.13;42.38;;;;;;;1.55;100.00;102564.09;10497543;28;20032;-76
2022/01/15 16:37:53;;;;;;;78.47;41.42;;;;;;;1.50;100.00;102567.09;10498183;28;20058;-77
2022/01/15 16:42:54;;;;;;;80.43;44.78;;;;;;;1.44;100.00;102569.28;10498985;28;20044;-77
2022/01/15 16:47:54;;;;;;;83.90;42.28;;;;;;;1.49;100.00;102559.16;10499626;28;20064;-76
2022/01/15 16:52:55;;;;;;;81.43;43.42;;;;;;;1.54;100.00;102560.59;10498351;28;20043;-77
2022/01/15 16:57:55;;;;;;;84.25;46.70;;;;;;;1.51;100.00;102559.94;10498621;28;20029;-76
2022/01/15 17:02:55;;;;;;;88.25;47.63;;;;;;;1.62;100.00;102568.94;10500475;28;20372;-77
2022/01/15 17:07:56;;;;;;;82.68;45.28;;;;;;;1.68;100.00;102566.84;10497233;28;20115;-77
2022/01/15 17:12:59;;;;;;;93.15;52.33;;;;;;;1.70;100.00;102559.59;10498642;28;20037;-77
2022/01/15 17:17:59;;;;;;;103.75;52.08;;;;;;;1.70;100.00;102563.13;10497588;28;20032;-77
2022/01/15 17:23:00;;;;;;;95.00;48.45;;;;;;;1.63;100.00;102560.00;10496637;28;20033;-77
2022/01/15 17:28:01;;;;;;;90.93;49.85;;;;;;;1.51;100.00;102558.09;10496025;28;20056;-77
2022/01/15 17:33:03;;;;;;;101.15;55.72;;;;;;;1.49;100.00;102545.81;10495880;28;20041;-77
2022/01/15 17:38:03;;;;;;;90.78;50.05;;;;;;;1.45;100.00;102545.16;10495662;28;20574;-77
2022/01/15 17:43:03;;;;;;;95.40;51.50;;;;;;;1.33;100.00;102540.59;10497644;28;20078;-77
2022/01/15 17:48:04;;;;;;;94.90;51.88;;;;;;;1.25;100.00;102543.75;10495986;28;20041;-77
2022/01/15 17:53:04;;;;;;;104.40;55.30;;;;;;;1.31;100.00;102518.50;10495785;28;20430;-77
2022/01/15 17:58:05;;;;;;;86.65;49.70;;;;;;;1.38;100.00;102519.81;10496992;28;20262;-77
2022/01/15 18:03:05;;;;;;;103.38;52.00;;;;;;;1.34;100.00;102516.47;10496743;28;20060;-77
2022/01/15 18:08:05;;;;;;;103.05;54.05;;;;;;;1.32;100.00;102520.19;10478037;28;20040;-77
2022/01/15 18:13:06;;;;;;;108.63;55.95;;;;;;;1.41;100.00;102519.63;10496802;28;20064;-77
2022/01/15 18:18:07;;;;;;;99.75;50.30;;;;;;;1.53;100.00;102525.97;10503098;28;20071;-76
2022/01/15 18:23:08;;;;;;;107.28;57.88;;;;;;;1.59;100.00;102521.06;10486054;28;20032;-77
2022/01/15 18:28:08;;;;;;;97.97;55.63;;;;;;;1.68;100.00;102521.44;10519483;28;20060;-76
2022/01/15 18:33:09;;;;;;;111.90;59.13;;;;;;;1.80;100.00;102524.19;10507226;28;20037;-76
2022/01/15 18:38:10;;;;;;;126.35;59.47;;;;;;;1.79;100.00;102524.28;10501754;28;20510;-77
2022/01/15 18:43:11;;;;;;;110.90;59.30;;;;;;;1.88;100.00;102521.00;10501725;28;20040;-77
2022/01/15 18:48:11;;;;;;;118.60;54.70;;;;;;;1.96;100.00;102509.81;10503278;28;20040;-77
2022/01/15 18:53:12;;;;;;;118.18;56.38;;;;;;;1.97;100.00;102507.03;10502987;28;20029;-77
2022/01/15 18:58:12;;;;;;;112.75;59.80;;;;;;;2.04;100.00;102518.16;10502553;28;20060;-74
2022/01/15 19:03:12;;;;;;;134.02;65.85;;;;;;;1.87;100.00;102540.66;10504311;28;20468;-74
2022/01/15 19:08:13;;;;;;;114.20;58.50;;;;;;;1.92;100.00;102573.28;10503265;28;20039;-75
2022/01/15 19:13:13;;;;;;;127.32;61.67;;;;;;;2.00;100.00;102608.34;10519724;28;20123;-76
2022/01/15 19:18:14;;;;;;;145.13;67.80;;;;;;;1.97;100.00;102626.41;10504138;28;20521;-76
2022/01/15 19:23:14;;;;;;;147.77;67.93;;;;;;;2.06;100.00;102585.72;10502396;28;20119;-76
2022/01/15 19:28:15;;;;;;;135.85;65.55;;;;;;;1.99;100.00;102469.53;10503658;28;20048;-75
2022/01/15 19:33:15;;;;;;;135.50;60.72;;;;;;;1.93;100.00;102369.28;10516794;28;20047;-75
2022/01/15 19:38:15;;;;;;;125.53;58.60;;;;;;;1.97;100.00;102359.22;10527717;28;20033;-75
2022/01/15 19:43:16;;;;;;;127.57;61.72;;;;;;;1.94;100.00;102387.00;10521226;28;20032;-76
2022/01/15 19:48:16;;;;;;;134.80;61.28;;;;;;;1.92;100.00;102431.69;10518693;28;20028;-75
2022/01/15 19:53:18;;;;;;;95.72;50.35;;;;;;;1.98;100.00;102452.66;10518623;28;20444;-75
2022/01/15 19:58:19;;;;;;;112.18;56.38;;;;;;;2.05;100.00;102448.59;10513738;28;20121;-76
2022/01/15 20:03:19;;;;;;;89.55;45.40;;;;;;;2.09;100.00;102431.38;10503386;28;20057;-75
2022/01/15 20:08:19;;;;;;;131.98;54.47;;;;;;;2.19;100.00;102442.31;10499204;28;20136;-75
2022/01/15 20:13:20;;;;;;;127.72;55.90;;;;;;;2.24;100.00;102440.19;10501601;28;20476;-74
2022/01/15 20:18:25;;;;;;;107.28;58.58;;;;;;;2.28;100.00;102470.22;10499563;28;20043;-77
2022/01/15 20:23:26;;;;;;;118.25;50.47;;;;;;;2.28;100.00;102427.47;10484196;28;20178;-76
2022/01/15 20:28:26;;;;;;;133.85;63.95;;;;;;;2.26;100.00;102480.16;10500259;28;20056;-78
2022/01/15 20:33:26;;;;;;;122.53;58.40;;;;;;;2.26;100.00;102429.38;10510995;28;20376;-75
2022/01/15 20:38:27;;;;;;;124.30;56.30;;;;;;;2.30;100.00;102429.06;10515186;28;20036;-75
2022/01/15 20:43:27;;;;;;;117.82;55.40;;;;;;;2.37;100.00;102458.06;10500051;28;20093;-76
2022/01/15 20:48:29;;;;;;;113.82;54.72;;;;;;;2.40;100.00;102456.03;10498372;28;20091;-74
2022/01/15 20:53:29;;;;;;;120.60;56.17;;;;;;;2.48;100.00;102472.38;10498027;28;20459;-76
2022/01/15 20:58:29;;;;;;;116.97;53.60;;;;;;;2.55;100.00;102465.66;10497975;28;20035;-76
2022/01/15 21:03:30;;;;;;;125.45;56.85;;;;;;;2.54;100.00;102482.66;10499160;28;20045;-75
2022/01/15 21:08:30;;;;;;;123.22;56.47;;;;;;;2.59;100.00;102481.50;10497722;28;20037;-76
2022/01/15 21:13:31;;;;;;;117.28;58.97;;;;;;;2.61;100.00;102464.34;10497916;28;20094;-76
2022/01/15 21:18:31;;;;;;;88.18;42.30;;;;;;;2.62;100.00;102452.72;10498765;28;20559;-76
2022/01/15 21:23:31;;;;;;;126.95;56.63;;;;;;;2.63;100.00;102453.56;10498812;28;20380;-75
2022/01/15 21:28:32;;;;;;;115.35;51.05;;;;;;;2.69;100.00;102455.81;10496902;28;20156;-75
2022/01/15 21:33:32;;;;;;;117.35;53.05;;;;;;;2.71;100.00;102461.88;10500186;28;20033;-76
2022/01/15 21:38:33;;;;;;;94.45;51.42;;;;;;;2.75;100.00;102456.22;10498688;28;20142;-75
2022/01/15 21:43:34;;;;;;;101.15;52.95;;;;;;;2.80;100.00;102462.09;10514214;28;20107;-75
2022/01/15 21:48:34;;;;;;;105.22;49.28;;;;;;;2.84;100.00;102467.22;10514858;28;20028;-76
2022/01/15 21:53:35;;;;;;;87.95;52.08;;;;;;;2.88;100.00;102442.84;10523221;28;20028;-75
2022/01/15 21:58:35;;;;;;;90.10;50.33;;;;;;;2.92;100.00;102444.31;10506814;28;20131;-76
2022/01/15 22:03:35;;;;;;;93.75;52.13;;;;;;;2.99;100.00;102439.38;10506838;28;20064;-77
2022/01/15 22:08:36;;;;;;;95.57;52.55;;;;;;;3.02;100.00;102431.97;10506879;28;20110;-75
2022/01/15 22:13:36;;;;;;;112.05;54.67;;;;;;;3.02;100.00;102440.00;10505829;28;20032;-74
2022/01/15 22:18:37;;;;;;;90.05;49.88;;;;;;;3.11;100.00;102434.97;10506492;28;20036;-77
2022/01/15 22:23:37;;;;;;;89.05;50.38;;;;;;;3.19;100.00;102430.78;10505345;28;20396;-75
2022/01/15 22:28:37;;;;;;;81.57;48.47;;;;;;;3.22;100.00;102405.59;10504482;28;20056;-74
2022/01/15 22:33:40;;;;;;;102.65;54.75;;;;;;;3.32;100.00;102411.13;10505755;28;20102;-75
2022/01/15 22:38:40;;;;;;;92.18;49.97;;;;;;;3.37;100.00;102423.22;10507424;28;20036;-75
2022/01/15 22:43:41;;;;;;;95.45;50.33;;;;;;;3.34;100.00;102393.97;10510524;28;20029;-76
2022/01/15 22:48:41;;;;;;;79.50;46.17;;;;;;;3.42;100.00;102372.84;10513703;28;20041;-73
2022/01/15 22:53:42;;;;;;;94.82;51.53;;;;;;;3.47;100.00;102369.81;10514230;28;20036;-73
2022/01/15 22:58:42;;;;;;;90.28;49.92;;;;;;;3.53;100.00;102380.06;10504404;28;20048;-73
2022/01/15 23:03:43;;;;;;;91.68;53.53;;;;;;;3.62;100.00;102370.50;10503050;28;20036;-75
2022/01/15 23:08:43;;;;;;;107.53;51.92;;;;;;;3.67;100.00;102376.34;10503493;28;20388;-73
2022/01/15 23:13:45;;;;;;;95.05;49.38;;;;;;;3.60;100.00;102364.41;10502839;28;20529;-74
2022/01/15 23:18:45;;;;;;;80.05;49.55;;;;;;;3.57;100.00;102364.63;10502636;28;20078;-74